createdAt,value
2023-03-21T00:02:24.274Z,100478.81
2023-03-21T00:04:54.936Z,100474.84
2023-03-21T00:07:22.931Z,100482.03
2023-03-21T00:09:51.496Z,100483.44
2023-03-21T00:12:21.032Z,100456.69
2023-03-21T00:14:48.941Z,100469.78
2023-03-21T00:17:17.489Z,100447.38
2023-03-21T00:19:46.254Z,100470.53
2023-03-21T00:22:14.296Z,100458.00
2023-03-21T00:24:42.091Z,100449.44
2023-03-21T00:27:39.328Z,100462.50
2023-03-21T00:29:59.131Z,100456.94
2023-03-21T00:32:27.601Z,100458.69
2023-03-21T00:35:11.933Z,100452.13
2023-03-21T00:37:43.862Z,100451.31
2023-03-21T00:40:25.334Z,100452.88
2023-03-21T00:42:55.696Z,100447.56
2023-03-21T00:45:25.025Z,100444.53
2023-03-21T00:47:53.067Z,100443.66
2023-03-21T00:50:21.147Z,100438.25
2023-03-21T00:52:49.225Z,100442.16
2023-03-21T00:55:19.337Z,100421.25
2023-03-21T00:57:56.218Z,100410.00
2023-03-21T01:00:30.976Z,100424.84
2023-03-21T01:03:11.132Z,100391.34
2023-03-21T01:06:00.668Z,100430.88
2023-03-21T01:08:38.191Z,100427.00
2023-03-21T01:11:14.861Z,100424.47
2023-03-21T01:13:53.705Z,100432.22
2023-03-21T01:16:27.211Z,100428.47
2023-03-21T01:18:56.072Z,100421.81
2023-03-21T01:21:24.256Z,100422.25
2023-03-21T01:23:52.089Z,100424.41
2023-03-21T01:26:19.957Z,100417.69
2023-03-21T01:28:48.014Z,100423.13
2023-03-21T01:31:17.580Z,100418.06
2023-03-21T01:33:47.548Z,100417.09
2023-03-21T01:36:22.439Z,100421.34
2023-03-21T01:38:53.372Z,100422.00
2023-03-21T01:41:33.628Z,100418.19
2023-03-21T01:44:16.877Z,100417.47
2023-03-21T01:46:57.004Z,100420.34
2023-03-21T01:49:50.818Z,100412.28
2023-03-21T01:52:36.402Z,100419.94
2023-03-21T01:55:11.674Z,100384.97
2023-03-21T01:58:03.882Z,100417.63
2023-03-21T02:00:38.651Z,100408.38
2023-03-21T02:03:35.060Z,100415.88
2023-03-21T02:06:47.411Z,100413.38
2023-03-21T02:09:40.830Z,100399.84
2023-03-21T02:12:16.285Z,100407.47
2023-03-21T02:14:44.914Z,100402.91
2023-03-21T02:17:28.251Z,100403.25
2023-03-21T02:20:30.820Z,100396.34
2023-03-21T02:23:48.803Z,100387.66
2023-03-21T02:26:41.982Z,100385.81
2023-03-21T02:29:32.996Z,100381.16
2023-03-21T02:32:22.582Z,100376.88
2023-03-21T02:35:21.095Z,100354.34
2023-03-21T02:38:00.545Z,100363.59
2023-03-21T02:40:36.270Z,100361.88
2023-03-21T02:43:22.194Z,100367.09
2023-03-21T02:45:55.630Z,100363.53
2023-03-21T02:48:38.137Z,100372.16
2023-03-21T02:51:17.319Z,100370.75
2023-03-21T02:54:02.104Z,100364.19
2023-03-21T02:56:40.299Z,100365.31
2023-03-21T02:59:09.583Z,100360.16
2023-03-21T03:01:38.353Z,100301.25
2023-03-21T03:04:19.531Z,100361.34
2023-03-21T03:07:07.839Z,100341.97
2023-03-21T03:09:49.016Z,100352.66
2023-03-21T03:12:24.255Z,100357.31
2023-03-21T03:15:03.869Z,100349.34
2023-03-21T03:17:44.436Z,100328.72
2023-03-21T03:20:21.647Z,100343.53
2023-03-21T03:22:56.483Z,100353.25
2023-03-21T03:25:42.090Z,100323.34
2023-03-21T03:28:15.506Z,100336.31
2023-03-21T03:30:57.166Z,100347.47
2023-03-21T03:33:37.115Z,100320.50
2023-03-21T03:36:09.422Z,100307.56
2023-03-21T03:38:40.346Z,100351.41
2023-03-21T03:41:15.328Z,100344.38
2023-03-21T03:43:52.313Z,100347.19
2023-03-21T03:46:28.045Z,100330.38
2023-03-21T03:48:59.406Z,100324.97
2023-03-21T03:51:33.543Z,100334.31
2023-03-21T03:54:14.058Z,100330.16
2023-03-21T03:56:44.378Z,100333.75
2023-03-21T03:59:12.582Z,100334.53
2023-03-21T04:01:55.598Z,100302.16
2023-03-21T04:04:28.571Z,100326.75
2023-03-21T04:06:58.151Z,100336.66
2023-03-21T04:09:41.248Z,100341.25
2023-03-21T04:12:14.154Z,100255.44
2023-03-21T04:14:48.187Z,100324.06
2023-03-21T04:17:18.600Z,100321.38
2023-03-21T04:19:46.670Z,100296.94
2023-03-21T04:22:14.749Z,100306.47
2023-03-21T04:24:44.847Z,100322.31
2023-03-21T04:27:15.510Z,100311.00
2023-03-21T04:29:48.549Z,100241.94
2023-03-21T04:32:26.799Z,100326.19
2023-03-21T04:35:10.636Z,100319.59
2023-03-21T04:37:40.242Z,100317.25
2023-03-21T04:40:17.824Z,100308.75
2023-03-21T04:42:48.946Z,100309.63
2023-03-21T04:45:17.606Z,100301.25
2023-03-21T04:47:46.893Z,100311.28
2023-03-21T04:50:15.906Z,100299.56
2023-03-21T04:52:44.325Z,100288.25
2023-03-21T04:55:12.245Z,100296.69
2023-03-21T04:57:40.416Z,100302.16
2023-03-21T05:00:13.024Z,100245.03
2023-03-21T05:02:41.109Z,100298.44
2023-03-21T05:05:11.365Z,100253.69
2023-03-21T05:07:39.172Z,100293.81
2023-03-21T05:10:08.856Z,100293.78
2023-03-21T05:12:36.995Z,100297.00
2023-03-21T05:15:05.540Z,100254.31
2023-03-21T05:17:34.797Z,100289.22
2023-03-21T05:20:05.667Z,100289.44
2023-03-21T05:22:40.348Z,100287.41
2023-03-21T05:25:12.260Z,100277.34
2023-03-21T05:28:09.555Z,100288.19
2023-03-21T05:30:37.830Z,100284.66
2023-03-21T05:33:07.032Z,100295.28
2023-03-21T05:35:36.208Z,100289.06
2023-03-21T05:38:06.928Z,100288.66
2023-03-21T05:40:48.063Z,100300.16
2023-03-21T05:43:15.863Z,100292.72
2023-03-21T05:45:44.248Z,100288.97
2023-03-21T05:48:13.773Z,100274.63
2023-03-21T05:50:59.808Z,100271.66
2023-03-21T05:53:28.094Z,100301.19
2023-03-21T05:55:56.315Z,100294.75
2023-03-21T05:58:40.600Z,100300.84
2023-03-21T06:01:08.808Z,100291.16
2023-03-21T06:03:40.503Z,100303.50
2023-03-21T06:06:14.638Z,100295.34
2023-03-21T06:09:08.529Z,100301.34
2023-03-21T06:11:39.828Z,100299.28
2023-03-21T06:14:30.691Z,100291.25
2023-03-21T06:17:17.881Z,100286.78
2023-03-21T06:19:58.392Z,100295.78
2023-03-21T06:22:30.828Z,100303.19
2023-03-21T06:24:58.974Z,100295.25
2023-03-21T06:27:27.979Z,100292.09
2023-03-21T06:29:58.026Z,100292.47
2023-03-21T06:32:27.285Z,100295.66
2023-03-21T06:35:02.153Z,100299.59
2023-03-21T06:37:29.932Z,100301.09
2023-03-21T06:39:58.006Z,100302.38
2023-03-21T06:42:26.392Z,100303.06
2023-03-21T06:45:00.314Z,100300.59
2023-03-21T06:47:28.962Z,100307.16
2023-03-21T06:49:57.372Z,100293.84
2023-03-21T06:52:26.660Z,100290.25
2023-03-21T06:54:54.939Z,100302.88
2023-03-21T06:57:22.917Z,100243.34
2023-03-21T06:59:51.773Z,100276.81
2023-03-21T07:02:21.858Z,100303.50
2023-03-21T07:05:10.675Z,100296.66
2023-03-21T07:07:39.864Z,100297.22
2023-03-21T07:10:09.268Z,100303.31
2023-03-21T07:12:45.915Z,100292.91
2023-03-21T07:15:26.317Z,100268.41
2023-03-21T07:17:54.350Z,100303.56
2023-03-21T07:20:22.206Z,100305.00
2023-03-21T07:22:51.522Z,100286.53
2023-03-21T07:25:20.541Z,100298.13
2023-03-21T07:27:49.412Z,100277.47
2023-03-21T07:30:18.196Z,100305.59
2023-03-21T07:32:47.680Z,100309.63
2023-03-21T07:35:18.544Z,100303.78
2023-03-21T07:37:46.384Z,100298.09
2023-03-21T07:40:18.975Z,100300.09
2023-03-21T07:42:49.637Z,100289.91
2023-03-21T07:45:28.901Z,100288.09
2023-03-21T07:47:56.712Z,100293.31
2023-03-21T07:50:25.144Z,100273.47
2023-03-21T07:52:52.956Z,100284.06
2023-03-21T07:55:22.577Z,100286.09
2023-03-21T07:57:51.537Z,100290.59
2023-03-21T08:00:23.034Z,100275.34
2023-03-21T08:02:57.921Z,100282.19
2023-03-21T08:05:30.894Z,100285.28
2023-03-21T08:07:58.683Z,100292.47
2023-03-21T08:10:28.246Z,100293.78
2023-03-21T08:12:56.264Z,100292.16
2023-03-21T08:15:24.317Z,100287.81
2023-03-21T08:17:52.156Z,100285.91
2023-03-21T08:20:21.954Z,100284.72
2023-03-21T08:22:50.432Z,100265.78
2023-03-21T08:25:21.696Z,100269.78
2023-03-21T08:27:52.372Z,100283.66
2023-03-21T08:30:22.193Z,100278.88
2023-03-21T08:32:50.983Z,100279.09
2023-03-21T08:35:20.641Z,100254.09
2023-03-21T08:37:48.795Z,100283.38
2023-03-21T08:40:18.885Z,100286.28
2023-03-21T08:42:47.535Z,100291.06
2023-03-21T08:45:18.494Z,100294.63
2023-03-21T08:47:46.750Z,100291.94
2023-03-21T08:50:17.148Z,100291.56
2023-03-21T08:52:44.756Z,100292.66
2023-03-21T08:55:14.142Z,100270.75
2023-03-21T08:57:42.116Z,100295.53
2023-03-21T09:00:13.955Z,100286.13
2023-03-21T09:02:43.437Z,100293.19
2023-03-21T09:05:12.865Z,100212.84
2023-03-21T09:07:41.617Z,100294.19
2023-03-21T09:10:22.365Z,100291.50
2023-03-21T09:12:51.684Z,100220.66
2023-03-21T09:15:21.642Z,100282.91
2023-03-21T09:17:53.268Z,100292.06
2023-03-21T09:20:26.177Z,100295.41
2023-03-21T09:22:54.941Z,100293.78
2023-03-21T09:25:23.667Z,100215.38
2023-03-21T09:27:51.838Z,100286.09
2023-03-21T09:30:23.730Z,100284.94
2023-03-21T09:32:55.750Z,100285.97
2023-03-21T09:35:24.412Z,100308.72
2023-03-21T09:37:52.593Z,100305.44
2023-03-21T09:40:25.607Z,100298.41
2023-03-21T09:43:05.957Z,100308.13
2023-03-21T09:45:38.561Z,100297.09
2023-03-21T09:48:20.056Z,100305.00
2023-03-21T09:50:48.493Z,100287.88
2023-03-21T09:53:27.078Z,100298.97
2023-03-21T09:55:54.995Z,100301.81
2023-03-21T09:58:28.481Z,100283.88
2023-03-21T10:01:05.274Z,100293.41
2023-03-21T10:03:36.356Z,100284.56
2023-03-21T10:06:11.379Z,100260.47
2023-03-21T10:08:42.227Z,100301.72
2023-03-21T10:11:16.994Z,100269.34
2023-03-21T10:13:49.483Z,100295.69
2023-03-21T10:16:22.511Z,100288.66
2023-03-21T10:18:52.342Z,100266.56
2023-03-21T10:21:51.282Z,100288.44
2023-03-21T10:24:15.725Z,100288.34
2023-03-21T10:26:45.017Z,100224.03
2023-03-21T10:29:16.684Z,100285.59
2023-03-21T10:31:46.181Z,100276.47
2023-03-21T10:34:19.775Z,100264.34
2023-03-21T10:36:48.303Z,100238.38
2023-03-21T10:39:25.552Z,100246.13
2023-03-21T10:41:53.325Z,100275.13
2023-03-21T10:44:22.491Z,100268.41
2023-03-21T10:46:53.465Z,100270.84
2023-03-21T10:49:23.466Z,100252.25
2023-03-21T10:51:53.382Z,100257.94
2023-03-21T10:54:23.279Z,100184.84
2023-03-21T10:56:58.785Z,100222.31
2023-03-21T10:59:30.136Z,100261.75
2023-03-21T11:01:58.211Z,100257.28
2023-03-21T11:04:30.834Z,100263.66
2023-03-21T11:07:01.297Z,100258.44
2023-03-21T11:09:46.033Z,100241.06
2023-03-21T11:12:15.924Z,100242.72
2023-03-21T11:14:45.620Z,100245.72
2023-03-21T11:17:24.860Z,100245.16
2023-03-21T11:19:57.891Z,100242.63
2023-03-21T11:22:30.265Z,100228.66
2023-03-21T11:25:02.651Z,100243.34
2023-03-21T11:27:32.418Z,100249.22
2023-03-21T11:30:05.090Z,100246.75
2023-03-21T11:32:35.891Z,100172.22
2023-03-21T11:35:07.783Z,100249.34
2023-03-21T11:37:39.730Z,100251.69
2023-03-21T11:40:20.522Z,100244.22
2023-03-21T11:42:51.870Z,100251.50
2023-03-21T11:45:21.780Z,100248.38
2023-03-21T11:47:52.233Z,100245.69
2023-03-21T11:50:28.174Z,100241.25
2023-03-21T11:53:16.913Z,100231.03
2023-03-21T11:55:55.334Z,100226.69
2023-03-21T11:58:38.910Z,100240.56
2023-03-21T12:01:17.602Z,100237.75
2023-03-21T12:04:01.227Z,100234.19
2023-03-21T12:06:36.116Z,100220.06
2023-03-21T12:09:15.636Z,100157.66
2023-03-21T12:11:59.174Z,100225.69
2023-03-21T12:14:37.982Z,100222.56
2023-03-21T12:17:13.815Z,100194.09
2023-03-21T12:20:10.762Z,100212.16
2023-03-21T12:22:48.451Z,100210.19
2023-03-21T12:25:19.538Z,100193.03
2023-03-21T12:28:02.791Z,100198.53
2023-03-21T12:30:36.524Z,100189.53
2023-03-21T12:33:24.060Z,100189.53
2023-03-21T12:36:13.054Z,100182.97
2023-03-21T12:38:47.886Z,100178.94
2023-03-21T12:41:25.533Z,100173.06
2023-03-21T12:44:00.618Z,100161.50
2023-03-21T12:46:34.562Z,100175.44
2023-03-21T12:49:08.913Z,100177.63
2023-03-21T12:51:42.219Z,100149.66
2023-03-21T12:54:18.940Z,100161.38
2023-03-21T12:56:53.991Z,100175.06
2023-03-21T12:59:33.347Z,100167.06
2023-03-21T13:02:15.450Z,100163.09
2023-03-21T13:04:48.554Z,100166.41
2023-03-21T13:07:21.000Z,100147.19
2023-03-21T13:09:51.308Z,100168.81
2023-03-21T13:12:23.320Z,100151.00
2023-03-21T13:15:03.514Z,100148.78
2023-03-21T13:17:38.079Z,100150.44
2023-03-21T13:20:20.193Z,100142.31
2023-03-21T13:22:48.174Z,100133.34
2023-03-21T13:25:22.907Z,100142.38
2023-03-21T13:27:55.761Z,100122.34
2023-03-21T13:30:26.484Z,100120.69
2023-03-21T13:33:05.691Z,100126.28
2023-03-21T13:35:38.382Z,100115.72
2023-03-21T13:38:12.881Z,100122.28
2023-03-21T13:40:46.358Z,100122.91
2023-03-21T13:43:34.832Z,100132.00
2023-03-21T13:46:08.693Z,100131.53
2023-03-21T13:48:59.092Z,100060.53
2023-03-21T13:51:44.217Z,100084.94
2023-03-21T13:54:21.840Z,100116.41
2023-03-21T13:56:54.136Z,100112.97
2023-03-21T13:59:39.377Z,100114.84
2023-03-21T14:02:28.537Z,100067.31
2023-03-21T14:05:05.449Z,100070.84
2023-03-21T14:07:36.654Z,100108.50
2023-03-21T14:10:07.917Z,100091.44
2023-03-21T14:12:40.706Z,100096.94
2023-03-21T14:15:18.840Z,100099.06
2023-03-21T14:17:54.818Z,100090.63
2023-03-21T14:20:25.593Z,100093.59
2023-03-21T14:22:53.791Z,100081.75
2023-03-21T14:25:27.225Z,100026.06
2023-03-21T14:28:01.271Z,100074.91
2023-03-21T14:30:33.265Z,100071.31
2023-03-21T14:33:06.864Z,100069.38
2023-03-21T14:35:35.222Z,100070.50
2023-03-21T14:38:07.441Z,100057.84
2023-03-21T14:40:36.211Z,100072.22
2023-03-21T14:43:07.503Z,100045.00
2023-03-21T14:45:37.362Z,100061.69
2023-03-21T14:48:08.514Z,100061.88
2023-03-21T14:50:41.885Z,100023.91
2023-03-21T14:53:17.186Z,100063.09
2023-03-21T14:55:47.336Z,100054.72
2023-03-21T14:58:19.189Z,100051.53
2023-03-21T15:00:50.474Z,100035.16
2023-03-21T15:03:18.973Z,100042.72
2023-03-21T15:05:47.508Z,100042.31
2023-03-21T15:08:17.079Z,100041.28
2023-03-21T15:11:06.335Z,100039.16
2023-03-21T15:13:41.280Z,100014.94
2023-03-21T15:16:10.842Z,100008.09
2023-03-21T15:18:41.128Z,100013.53
2023-03-21T15:21:17.192Z,99997.88
2023-03-21T15:23:47.437Z,100002.44
2023-03-21T15:26:16.700Z,100012.66
2023-03-21T15:28:48.673Z,99982.53
2023-03-21T15:31:19.635Z,100009.91
2023-03-21T15:33:48.726Z,100003.94
2023-03-21T15:36:21.859Z,100005.41
2023-03-21T15:38:50.387Z,99998.47
2023-03-21T15:41:27.698Z,99982.50
2023-03-21T15:44:03.299Z,99987.19
2023-03-21T15:46:41.639Z,99980.72
2023-03-21T15:49:12.300Z,99980.22
2023-03-21T15:51:42.709Z,99977.34
2023-03-21T15:54:15.193Z,99967.03
2023-03-21T15:56:46.076Z,99959.91
2023-03-21T15:59:18.106Z,99989.69
2023-03-21T16:01:47.662Z,99967.06
2023-03-21T16:04:18.389Z,99976.25
2023-03-21T16:06:57.884Z,99989.94
2023-03-21T16:09:26.356Z,99988.66
2023-03-21T16:11:55.439Z,99977.47
2023-03-21T16:14:27.784Z,99965.22
2023-03-21T16:16:56.243Z,99959.66
2023-03-21T16:19:24.895Z,99914.31
2023-03-21T16:21:53.326Z,99952.56
2023-03-21T16:24:21.056Z,99969.72
2023-03-21T16:26:51.720Z,99953.59
2023-03-21T16:29:20.700Z,99906.84
2023-03-21T16:31:50.018Z,99884.50
2023-03-21T16:34:17.878Z,99986.78
2023-03-21T16:36:45.816Z,99980.06
2023-03-21T16:39:19.839Z,99960.69
2023-03-21T16:41:48.333Z,99986.25
2023-03-21T16:44:16.616Z,99984.78
2023-03-21T16:46:44.541Z,99968.88
2023-03-21T16:49:21.842Z,99964.06
2023-03-21T16:51:49.677Z,99966.38
2023-03-21T16:54:17.961Z,99964.28
2023-03-21T16:56:47.659Z,99972.19
2023-03-21T16:59:16.220Z,99982.25
2023-03-21T17:01:45.946Z,99962.75
2023-03-21T17:04:14.766Z,99975.09
2023-03-21T17:06:47.331Z,99974.28
2023-03-21T17:09:17.054Z,99979.31
2023-03-21T17:11:44.817Z,99976.66
2023-03-21T17:14:14.280Z,99954.94
2023-03-21T17:16:43.049Z,99901.13
2023-03-21T17:19:16.144Z,99962.72
2023-03-21T17:21:45.610Z,99968.72
2023-03-21T17:24:13.671Z,99950.63
2023-03-21T17:26:41.494Z,99958.66
2023-03-21T17:29:11.958Z,99973.25
2023-03-21T17:31:39.832Z,99983.91
2023-03-21T17:34:08.522Z,99973.88
2023-03-21T17:36:38.134Z,99983.91
2023-03-21T17:39:09.447Z,99989.28
2023-03-21T17:41:37.332Z,99998.28
2023-03-21T17:44:05.360Z,99996.88
2023-03-21T17:46:37.462Z,99994.75
2023-03-21T17:49:06.145Z,99992.13
2023-03-21T17:51:34.075Z,99990.88
2023-03-21T17:54:02.430Z,99983.75
2023-03-21T17:56:33.407Z,99935.41
2023-03-21T17:59:04.205Z,99992.41
2023-03-21T18:01:32.924Z,99969.94
2023-03-21T18:04:02.739Z,99945.97
2023-03-21T18:06:30.744Z,99995.66
2023-03-21T18:08:59.677Z,100003.69
2023-03-21T18:11:28.500Z,100003.00
2023-03-21T18:14:13.846Z,99992.03
2023-03-21T18:16:43.895Z,99992.50
2023-03-21T18:19:13.165Z,100002.84
2023-03-21T18:21:44.795Z,99993.44
2023-03-21T18:24:13.035Z,100000.34
2023-03-21T18:26:41.209Z,99980.41
2023-03-21T18:32:06.822Z,100006.38
2023-03-21T18:34:36.258Z,99974.59
2023-03-21T18:37:04.530Z,100000.09
2023-03-21T18:39:33.006Z,100004.19
2023-03-21T18:42:02.486Z,100009.03
2023-03-21T18:44:37.299Z,100012.91
2023-03-21T18:47:06.513Z,100016.41
2023-03-21T18:50:10.449Z,100010.44
2023-03-21T18:52:22.906Z,100019.50
2023-03-21T18:54:50.778Z,100016.41
2023-03-21T18:57:37.422Z,100003.09
2023-03-21T19:00:13.056Z,99986.97
2023-03-21T19:02:45.999Z,99978.16
2023-03-21T19:05:16.001Z,100009.25
2023-03-21T19:07:43.853Z,100004.13
2023-03-21T19:10:17.972Z,100005.84
2023-03-21T19:12:46.751Z,100006.16
2023-03-21T19:15:18.683Z,99940.94
2023-03-21T19:18:28.573Z,99965.00
2023-03-21T19:20:35.122Z,99993.44
2023-03-21T19:23:03.307Z,99997.41
2023-03-21T19:25:31.265Z,100007.59
2023-03-21T19:27:59.038Z,100005.00
2023-03-21T19:30:28.282Z,100005.00
2023-03-21T19:32:56.257Z,99983.81
2023-03-21T19:35:24.156Z,100010.81
2023-03-21T19:37:51.998Z,100008.94
2023-03-21T19:40:20.632Z,99977.75
2023-03-21T19:42:48.490Z,99994.78
2023-03-21T19:45:16.309Z,100004.00
2023-03-21T19:47:46.240Z,100005.72
2023-03-21T19:53:02.013Z,100003.78
2023-03-21T19:55:29.973Z,99978.44
2023-03-21T19:57:58.063Z,99993.25
2023-03-21T20:00:26.016Z,100001.53
2023-03-21T20:02:55.461Z,99992.78
2023-03-21T20:05:25.612Z,99992.63
2023-03-21T20:07:55.376Z,99977.59
2023-03-21T20:10:23.472Z,99992.69
2023-03-21T20:12:51.391Z,99990.75
2023-03-21T20:15:21.620Z,99968.63
2023-03-21T20:17:50.397Z,99991.31
2023-03-21T20:20:20.293Z,99983.13
2023-03-21T20:23:10.745Z,99989.78
2023-03-21T20:25:41.403Z,99991.75
2023-03-21T20:28:24.711Z,99994.44
2023-03-21T20:30:58.545Z,99992.25
2023-03-21T20:33:26.989Z,99986.97
2023-03-21T20:38:50.918Z,99983.22
2023-03-21T20:41:18.965Z,99979.72
2023-03-21T20:44:28.468Z,99969.28
2023-03-21T20:46:37.108Z,99980.81
2023-03-21T20:49:07.666Z,99962.41
2023-03-21T20:54:25.728Z,99968.47
2023-03-21T20:56:54.020Z,99970.72
2023-03-21T20:59:27.198Z,99964.88
2023-03-21T21:01:57.449Z,99968.56
2023-03-21T21:04:44.122Z,99965.44
2023-03-21T21:07:17.307Z,99974.00
2023-03-21T21:09:46.476Z,99967.97
2023-03-21T21:12:16.409Z,99954.28
2023-03-21T21:14:45.422Z,99962.09
2023-03-21T21:20:02.393Z,99950.06
2023-03-21T21:22:32.533Z,99963.25
2023-03-21T21:25:00.587Z,99957.84
2023-03-21T21:27:28.522Z,99964.50
2023-03-21T21:29:57.532Z,99946.69
2023-03-21T21:32:25.526Z,99952.47
2023-03-21T21:34:53.567Z,99955.88
2023-03-21T21:37:22.520Z,99943.31
2023-03-21T21:39:51.729Z,99933.53
2023-03-21T21:42:19.820Z,99944.88
2023-03-21T21:44:47.943Z,99954.84
2023-03-21T21:47:15.804Z,99945.13
2023-03-21T21:49:43.942Z,99948.47
2023-03-21T21:52:13.687Z,99949.06
2023-03-21T21:54:45.588Z,99952.09
2023-03-21T21:57:18.962Z,99944.00
2023-03-21T21:59:46.814Z,99947.59
2023-03-21T22:02:16.906Z,99936.56
2023-03-21T22:04:44.805Z,99905.78
2023-03-21T22:07:14.610Z,99946.44
2023-03-21T22:09:42.786Z,99947.50
2023-03-21T22:12:10.777Z,99937.28
2023-03-21T22:14:40.969Z,99941.91
2023-03-21T22:17:08.652Z,99940.34
2023-03-21T22:19:37.837Z,99939.63
2023-03-21T22:22:07.685Z,99934.09
2023-03-21T22:24:35.768Z,99939.25
2023-03-21T22:27:03.775Z,99940.59
2023-03-21T22:29:31.583Z,99929.09
2023-03-21T22:32:00.891Z,99887.91
2023-03-21T22:34:28.745Z,99926.09
2023-03-21T22:36:57.705Z,99926.97
2023-03-21T22:39:26.388Z,99922.13
2023-03-21T22:41:55.136Z,99869.88
2023-03-21T22:44:23.010Z,99929.16
2023-03-21T22:46:50.830Z,99924.97
2023-03-21T22:49:20.238Z,99924.97
2023-03-21T22:51:48.017Z,99856.88
2023-03-21T22:54:15.922Z,99920.06
2023-03-21T22:56:43.687Z,99899.53
2023-03-21T22:59:11.499Z,99918.94
2023-03-21T23:01:39.953Z,99923.69
2023-03-21T23:04:07.943Z,99917.13
2023-03-21T23:06:37.392Z,99836.13
2023-03-21T23:09:05.335Z,99916.19
2023-03-21T23:11:33.166Z,99877.81
2023-03-21T23:14:07.810Z,99881.78
2023-03-21T23:16:38.328Z,99918.53
2023-03-21T23:19:07.780Z,99917.94
2023-03-21T23:21:38.321Z,99924.75
2023-03-21T23:24:07.147Z,99922.75
2023-03-21T23:26:35.778Z,99893.81
2023-03-21T23:29:04.376Z,99916.38
2023-03-21T23:31:33.018Z,99892.91
2023-03-21T23:34:01.870Z,99927.38
2023-03-21T23:36:30.400Z,99908.22
2023-03-21T23:38:59.562Z,99908.22
2023-03-21T23:41:27.394Z,99906.50
2023-03-21T23:43:55.262Z,99888.47
2023-03-21T23:46:23.165Z,99896.28
2023-03-21T23:48:51.193Z,99900.06
2023-03-21T23:51:19.379Z,99810.25
2023-03-21T23:53:47.602Z,99903.91
2023-03-21T23:56:19.549Z,99881.69
2023-03-21T23:58:48.130Z,99890.91
